Time;durP1;ratioP1;P1;durP2;ratioP2;P2;SDS_P1;SDS_P2;PMS_P1;PMS_P2;Temp;Humidity;BMP_temperature;BMP_pressure;BME280_temperature;BME280_humidity;BME280_pressure;Samples;Min_cycle;Max_cycle;Signal;HPM_P1;HPM_P2
2021/07/27 00:01:07;;;;;;;25.23;23.47;;;;;;;;;;5096428;28;20417;-89
2021/07/27 00:03:34;;;;;;;23.23;21.67;;;;;;;;;;5095438;28;20529;-89
2021/07/27 00:06:02;;;;;;;25.03;23.40;;;;;;;;;;5096219;28;20432;-89
2021/07/27 00:08:29;;;;;;;25.70;23.87;;;;;;;;;;5096572;28;20448;-89
2021/07/27 00:10:56;;;;;;;22.77;21.23;;;;;;;;;;5096649;28;20434;-89
2021/07/27 00:13:24;;;;;;;24.30;22.80;;;;;;;;;;5095969;28;20412;-89
2021/07/27 00:15:52;;;;;;;23.60;22.20;;;;;;;;;;5096265;28;20432;-89
2021/07/27 00:18:20;;;;;;;24.23;22.90;;;;;;;;;;5095922;28;20485;-89
2021/07/27 00:20:48;;;;;;;23.43;22.03;;;;;;;;;;5095126;28;20476;-89
2021/07/27 00:23:15;;;;;;;23.90;22.50;;;;;;;;;;5096164;28;20413;-89
2021/07/27 00:25:43;;;;;;;23.90;22.40;;;;;;;;;;5094850;28;20442;-89
2021/07/27 00:28:11;;;;;;;25.50;23.70;;;;;;;;;;5094938;28;20412;-89
2021/07/27 00:30:38;;;;;;;25.90;24.13;;;;;;;;;;5096177;28;20434;-89
2021/07/27 00:33:07;;;;;;;23.97;22.53;;;;;;;;;;5095955;28;20422;-89
2021/07/27 00:35:35;;;;;;;24.37;22.80;;;;;;;;;;5094809;28;20412;-89
2021/07/27 00:38:09;;;;;;;24.20;22.60;;;;;;;;;;5094488;28;20789;-89
2021/07/27 00:40:36;;;;;;;24.67;22.80;;;;;;;;;;5095483;28;20408;-89
2021/07/27 00:43:05;;;;;;;23.80;22.30;;;;;;;;;;5094641;28;20503;-89
2021/07/27 00:45:33;;;;;;;23.80;22.40;;;;;;;;;;5095635;28;20855;-89
2021/07/27 00:48:00;;;;;;;24.63;22.97;;;;;;;;;;5095382;28;20915;-89
2021/07/27 00:50:29;;;;;;;23.90;22.40;;;;;;;;;;5095693;28;20442;-89
2021/07/27 00:52:58;;;;;;;23.63;22.33;;;;;;;;;;5095616;28;20544;-89
2021/07/27 00:55:25;;;;;;;24.40;23.00;;;;;;;;;;5095275;28;20446;-89
2021/07/27 00:57:53;;;;;;;25.63;23.93;;;;;;;;;;5094148;28;20484;-90
2021/07/27 01:00:20;;;;;;;23.97;22.57;;;;;;;;;;5095342;28;20444;-89
2021/07/27 01:02:48;;;;;;;24.93;23.17;;;;;;;;;;5095342;28;20469;-89
2021/07/27 01:05:16;;;;;;;24.30;22.90;;;;;;;;;;5094205;28;20438;-89
2021/07/27 01:07:45;;;;;;;24.23;22.63;;;;;;;;;;5095166;28;20453;-89
2021/07/27 01:10:13;;;;;;;25.30;23.20;;;;;;;;;;5095639;28;20448;-89
2021/07/27 01:12:41;;;;;;;24.77;23.07;;;;;;;;;;5095144;28;20426;-89
2021/07/27 01:15:09;;;;;;;24.10;22.43;;;;;;;;;;5095155;28;20942;-89
2021/07/27 01:17:36;;;;;;;23.77;22.17;;;;;;;;;;5094846;28;20449;-89
2021/07/27 01:20:09;;;;;;;24.30;22.70;;;;;;;;;;5094776;28;20416;-88
2021/07/27 01:42:07;;;;;;;24.67;22.97;;;;;;;;;;5078705;28;20433;-89
2021/07/27 01:44:35;;;;;;;24.63;22.83;;;;;;;;;;5094433;28;20477;-89
2021/07/27 01:47:02;;;;;;;23.57;22.17;;;;;;;;;;5094534;28;20413;-89
2021/07/27 01:49:30;;;;;;;25.20;23.60;;;;;;;;;;5094830;28;20440;-88
2021/07/27 01:51:57;;;;;;;24.60;23.00;;;;;;;;;;5094676;28;20437;-89
2021/07/27 01:54:30;;;;;;;23.83;22.43;;;;;;;;;;5094173;28;20482;-89
2021/07/27 01:56:58;;;;;;;23.60;22.10;;;;;;;;;;5095002;28;20421;-89
2021/07/27 01:59:25;;;;;;;24.50;22.43;;;;;;;;;;5094195;28;20496;-89
2021/07/27 02:01:52;;;;;;;24.57;22.67;;;;;;;;;;5094512;28;20431;-89
2021/07/27 02:04:20;;;;;;;24.40;22.90;;;;;;;;;;5094332;28;20549;-89
2021/07/27 02:06:47;;;;;;;24.77;23.37;;;;;;;;;;5093632;28;20441;-89
2021/07/27 02:09:15;;;;;;;24.50;22.90;;;;;;;;;;5094985;28;20465;-89
2021/07/27 02:11:48;;;;;;;23.87;22.50;;;;;;;;;;5093353;28;20541;-89
2021/07/27 02:14:17;;;;;;;24.90;23.30;;;;;;;;;;5094438;28;20919;-89
2021/07/27 02:16:44;;;;;;;26.03;24.20;;;;;;;;;;5094773;28;20843;-90
2021/07/27 02:19:12;;;;;;;24.07;22.47;;;;;;;;;;5094202;28;20485;-89
2021/07/27 02:21:39;;;;;;;24.07;22.37;;;;;;;;;;5094021;28;20516;-89
2021/07/27 02:24:07;;;;;;;26.03;24.00;;;;;;;;;;5094464;28;20436;-89
2021/07/27 02:26:34;;;;;;;24.13;22.47;;;;;;;;;;5094276;28;20421;-89
2021/07/27 02:29:03;;;;;;;24.83;22.90;;;;;;;;;;5093343;28;20761;-89
2021/07/27 02:31:36;;;;;;;25.10;23.40;;;;;;;;;;5093937;28;20406;-88
2021/07/27 02:34:03;;;;;;;24.10;22.60;;;;;;;;;;5094147;28;20446;-89
2021/07/27 02:36:30;;;;;;;25.53;23.70;;;;;;;;;;5096487;28;20874;-89
2021/07/27 02:38:58;;;;;;;24.00;22.50;;;;;;;;;;5097909;28;20459;-89
2021/07/27 02:41:32;;;;;;;33.07;26.73;;;;;;;;;;5098036;28;20432;-89
2021/07/27 02:43:59;;;;;;;24.60;22.87;;;;;;;;;;5097731;28;20490;-89
2021/07/27 02:46:28;;;;;;;27.33;25.00;;;;;;;;;;5098115;28;20742;-89
2021/07/27 02:49:02;;;;;;;26.67;24.80;;;;;;;;;;5097896;28;20427;-89
2021/07/27 02:51:30;;;;;;;26.70;24.60;;;;;;;;;;5097617;28;20424;-89
2021/07/27 02:53:57;;;;;;;27.07;25.03;;;;;;;;;;5097364;27;20468;-89
2021/07/27 02:56:25;;;;;;;25.30;23.37;;;;;;;;;;5097646;28;20770;-89
2021/07/27 02:58:52;;;;;;;23.37;21.97;;;;;;;;;;5097637;28;20505;-89
2021/07/27 03:01:19;;;;;;;26.73;25.03;;;;;;;;;;5097734;28;20902;-89
2021/07/27 03:03:50;;;;;;;25.57;23.70;;;;;;;;;;5097366;28;20442;-89
2021/07/27 03:06:19;;;;;;;26.43;24.63;;;;;;;;;;5097454;28;20435;-89
2021/07/27 03:08:50;;;;;;;25.53;23.93;;;;;;;;;;5097321;28;20533;-90
2021/07/27 03:11:17;;;;;;;25.37;23.20;;;;;;;;;;5097586;28;20465;-89
2021/07/27 03:13:45;;;;;;;26.73;24.70;;;;;;;;;;5097450;28;20789;-88
2021/07/27 03:16:15;;;;;;;26.03;24.30;;;;;;;;;;5097108;28;20875;-88
2021/07/27 03:18:43;;;;;;;27.33;25.43;;;;;;;;;;5096843;28;20570;-89
2021/07/27 03:21:12;;;;;;;27.97;25.87;;;;;;;;;;5096249;28;20503;-89
2021/07/27 03:23:39;;;;;;;26.83;24.67;;;;;;;;;;5096961;28;20412;-89
2021/07/27 03:26:07;;;;;;;26.87;25.07;;;;;;;;;;5097323;28;20414;-88
2021/07/27 03:28:34;;;;;;;28.87;26.43;;;;;;;;;;5097133;28;20464;-89
2021/07/27 03:31:02;;;;;;;28.30;26.20;;;;;;;;;;5097042;28;20867;-89
2021/07/27 03:33:29;;;;;;;27.80;25.80;;;;;;;;;;5096773;28;20916;-89
2021/07/27 03:35:57;;;;;;;27.63;25.83;;;;;;;;;;5097023;28;20893;-89
2021/07/27 03:38:26;;;;;;;29.23;26.80;;;;;;;;;;5096800;28;20844;-89
2021/07/27 03:40:53;;;;;;;29.90;27.27;;;;;;;;;;5096927;28;20514;-89
2021/07/27 03:43:21;;;;;;;28.57;26.30;;;;;;;;;;5095800;28;20906;-89
2021/07/27 03:45:48;;;;;;;30.97;28.40;;;;;;;;;;5095948;28;20417;-89
2021/07/27 03:48:15;;;;;;;32.40;29.20;;;;;;;;;;5096500;28;20430;-88
2021/07/27 03:50:43;;;;;;;30.17;27.57;;;;;;;;;;5096796;28;20437;-89
2021/07/27 03:53:13;;;;;;;29.90;27.40;;;;;;;;;;5096292;28;20824;-89
2021/07/27 03:55:42;;;;;;;29.03;26.73;;;;;;;;;;5096355;28;20443;-89
2021/07/27 03:58:10;;;;;;;29.93;27.67;;;;;;;;;;5096175;28;20481;-89
2021/07/27 04:00:38;;;;;;;27.80;25.70;;;;;;;;;;5096442;28;21030;-88
2021/07/27 04:03:05;;;;;;;29.60;27.10;;;;;;;;;;5096228;28;20405;-89
2021/07/27 04:05:32;;;;;;;31.13;28.63;;;;;;;;;;5096329;28;20937;-89
2021/07/27 04:08:00;;;;;;;31.93;29.47;;;;;;;;;;5096706;28;20446;-89
2021/07/27 04:10:27;;;;;;;31.30;28.67;;;;;;;;;;5096138;28;20873;-89
2021/07/27 04:12:56;;;;;;;30.87;28.37;;;;;;;;;;5096118;28;20411;-89
2021/07/27 04:15:31;;;;;;;31.80;29.33;;;;;;;;;;5095937;28;20407;-89
2021/07/27 04:17:58;;;;;;;33.30;30.07;;;;;;;;;;5095884;28;20415;-89
2021/07/27 04:20:25;;;;;;;32.27;29.50;;;;;;;;;;5096155;28;20752;-87
2021/07/27 04:22:53;;;;;;;33.60;30.70;;;;;;;;;;5095736;28;20413;-87
2021/07/27 04:25:20;;;;;;;31.70;29.30;;;;;;;;;;5096449;28;20412;-88
2021/07/27 04:27:48;;;;;;;33.30;30.30;;;;;;;;;;5095641;28;20802;-88
2021/07/27 04:30:17;;;;;;;34.67;31.57;;;;;;;;;;5095664;28;20444;-88
2021/07/27 04:32:44;;;;;;;32.17;29.50;;;;;;;;;;5096224;28;20408;-90
2021/07/27 04:35:11;;;;;;;32.53;29.60;;;;;;;;;;5095300;28;20420;-91
2021/07/27 04:37:39;;;;;;;33.80;30.70;;;;;;;;;;5095696;28;20458;-90
2021/07/27 04:40:07;;;;;;;33.83;30.93;;;;;;;;;;5095480;28;20450;-93
2021/07/27 04:42:34;;;;;;;35.37;32.23;;;;;;;;;;5095933;28;20420;-89
2021/07/27 04:45:02;;;;;;;34.97;31.97;;;;;;;;;;5095877;28;20441;-89
2021/07/27 04:47:31;;;;;;;32.53;29.50;;;;;;;;;;5093802;28;20405;-88
2021/07/27 04:49:58;;;;;;;33.27;30.53;;;;;;;;;;5094659;28;20462;-89
2021/07/27 04:52:26;;;;;;;35.60;32.50;;;;;;;;;;5094006;28;20408;-88
2021/07/27 04:54:55;;;;;;;36.23;33.13;;;;;;;;;;5094377;28;20795;-89
2021/07/27 04:57:22;;;;;;;37.23;33.80;;;;;;;;;;5094293;28;20883;-89
2021/07/27 04:59:49;;;;;;;35.30;32.17;;;;;;;;;;5093383;28;20456;-89
2021/07/27 05:02:17;;;;;;;36.17;32.97;;;;;;;;;;5094162;28;20438;-88
2021/07/27 05:04:46;;;;;;;37.23;33.93;;;;;;;;;;5094238;28;20426;-87
2021/07/27 05:07:13;;;;;;;38.00;34.57;;;;;;;;;;5094176;28;20791;-88
2021/07/27 05:09:40;;;;;;;34.70;31.93;;;;;;;;;;5094336;28;20437;-88
2021/07/27 05:12:08;;;;;;;36.83;33.43;;;;;;;;;;5094583;28;20927;-88
2021/07/27 05:14:36;;;;;;;38.30;34.57;;;;;;;;;;5095034;28;20404;-89
2021/07/27 05:17:09;;;;;;;39.20;35.33;;;;;;;;;;5095146;28;20440;-88
2021/07/27 05:19:37;;;;;;;38.20;34.90;;;;;;;;;;5094886;28;20478;-87
2021/07/27 05:22:06;;;;;;;37.63;34.27;;;;;;;;;;5094731;28;20426;-88
2021/07/27 05:24:33;;;;;;;37.80;34.37;;;;;;;;;;5094714;28;20412;-85
2021/07/27 05:27:00;;;;;;;36.57;33.23;;;;;;;;;;5094504;28;20429;-87
2021/07/27 05:29:28;;;;;;;37.63;34.43;;;;;;;;;;5093439;28;20420;-87
2021/07/27 05:31:55;;;;;;;39.40;35.33;;;;;;;;;;5094579;28;20411;-87
2021/07/27 05:34:22;;;;;;;39.73;36.33;;;;;;;;;;5094695;28;20449;-87
2021/07/27 05:36:50;;;;;;;39.40;35.93;;;;;;;;;;5094666;28;20471;-87
2021/07/27 05:39:18;;;;;;;39.00;35.67;;;;;;;;;;5094507;28;20455;-89
2021/07/27 05:41:46;;;;;;;37.60;34.00;;;;;;;;;;5094630;28;20419;-88
2021/07/27 05:44:13;;;;;;;40.23;36.57;;;;;;;;;;5094660;28;20911;-88
2021/07/27 05:46:41;;;;;;;37.90;34.57;;;;;;;;;;5094890;28;20473;-88
2021/07/27 05:49:10;;;;;;;41.33;37.43;;;;;;;;;;5094271;28;20458;-88
2021/07/27 05:51:39;;;;;;;40.43;36.70;;;;;;;;;;5094310;28;20410;-88
2021/07/27 05:54:07;;;;;;;41.57;37.70;;;;;;;;;;5093994;28;20992;-88
2021/07/27 05:56:35;;;;;;;41.40;37.77;;;;;;;;;;5094419;28;20434;-88
2021/07/27 05:59:03;;;;;;;42.33;38.63;;;;;;;;;;5093110;28;20448;-88
2021/07/27 06:01:30;;;;;;;42.83;38.83;;;;;;;;;;5094114;28;20446;-88
2021/07/27 06:03:58;;;;;;;44.43;40.43;;;;;;;;;;5094005;28;20445;-87
2021/07/27 06:06:25;;;;;;;42.53;38.40;;;;;;;;;;5093771;28;20406;-83
2021/07/27 06:08:52;;;;;;;45.07;40.93;;;;;;;;;;5093875;28;20895;-88
2021/07/27 06:11:20;;;;;;;45.50;41.20;;;;;;;;;;5097511;28;20434;-87
2021/07/27 06:13:48;;;;;;;43.77;39.43;;;;;;;;;;5098453;28;20396;-94
2021/07/27 06:16:16;;;;;;;46.00;41.40;;;;;;;;;;5099306;28;20943;-96
2021/07/27 06:18:43;;;;;;;46.67;41.97;;;;;;;;;;5099074;28;20939;-89
2021/07/27 06:21:11;;;;;;;48.40;43.67;;;;;;;;;;5097794;28;20449;-89
2021/07/27 06:23:39;;;;;;;46.40;41.57;;;;;;;;;;5099720;28;20521;-96
2021/07/27 06:26:07;;;;;;;44.00;39.70;;;;;;;;;;5100809;28;20437;-94
2021/07/27 06:28:35;;;;;;;47.53;42.40;;;;;;;;;;5098633;28;20926;-90
2021/07/27 06:31:11;;;;;;;48.07;43.13;;;;;;;;;;5098047;28;20793;-89
2021/07/27 06:33:38;;;;;;;47.47;42.57;;;;;;;;;;5097940;28;20404;-89
2021/07/27 06:36:06;;;;;;;47.33;42.53;;;;;;;;;;5098099;28;20547;-90
2021/07/27 06:38:33;;;;;;;50.80;45.40;;;;;;;;;;5098131;28;20429;-90
2021/07/27 06:41:00;;;;;;;47.17;42.57;;;;;;;;;;5098022;28;20482;-89
2021/07/27 06:43:28;;;;;;;49.93;44.63;;;;;;;;;;5098402;28;20418;-90
2021/07/27 06:45:55;;;;;;;50.70;45.50;;;;;;;;;;5097986;28;20446;-88
2021/07/27 06:48:24;;;;;;;48.10;43.33;;;;;;;;;;5097814;28;20807;-91
2021/07/27 06:50:52;;;;;;;48.03;43.17;;;;;;;;;;5098067;28;20424;-91
2021/07/27 06:53:20;;;;;;;40.53;36.43;;;;;;;;;;5097477;28;20482;-92
2021/07/27 06:55:47;;;;;;;47.47;42.77;;;;;;;;;;5097115;28;20424;-91
2021/07/27 06:58:15;;;;;;;46.23;41.83;;;;;;;;;;5097612;28;20416;-91
2021/07/27 07:00:43;;;;;;;45.33;41.07;;;;;;;;;;5097256;28;20454;-89
2021/07/27 07:03:10;;;;;;;49.50;44.47;;;;;;;;;;5097423;28;20461;-91
2021/07/27 07:05:42;;;;;;;47.50;43.27;;;;;;;;;;5097716;28;20412;-91
2021/07/27 07:08:09;;;;;;;47.03;42.50;;;;;;;;;;5096401;28;20462;-92
2021/07/27 07:10:37;;;;;;;47.17;42.73;;;;;;;;;;5097324;28;20455;-90
2021/07/27 07:13:04;;;;;;;47.57;42.70;;;;;;;;;;5097588;28;20443;-93
2021/07/27 07:15:32;;;;;;;50.23;45.20;;;;;;;;;;5097138;28;20411;-94
2021/07/27 07:17:59;;;;;;;47.03;42.70;;;;;;;;;;5097513;28;20442;-94
2021/07/27 07:20:27;;;;;;;47.93;43.17;;;;;;;;;;5097697;28;20482;-93
2021/07/27 07:22:56;;;;;;;48.63;44.43;;;;;;;;;;5095587;28;20481;-94
2021/07/27 07:25:24;;;;;;;48.20;43.30;;;;;;;;;;5097076;28;20454;-94
2021/07/27 07:27:51;;;;;;;47.37;42.90;;;;;;;;;;5097294;28;20450;-92
2021/07/27 07:30:18;;;;;;;46.60;42.50;;;;;;;;;;5097972;28;20453;-90
2021/07/27 07:32:46;;;;;;;46.97;42.77;;;;;;;;;;5097140;28;20465;-92
2021/07/27 07:35:13;;;;;;;46.90;42.60;;;;;;;;;;5096895;28;20421;-94
2021/07/27 07:37:41;;;;;;;46.27;41.87;;;;;;;;;;5097099;28;20453;-89
2021/07/27 07:40:13;;;;;;;47.77;43.50;;;;;;;;;;5096797;28;20478;-86
2021/07/27 07:42:41;;;;;;;45.60;41.43;;;;;;;;;;5097623;28;20414;-87
2021/07/27 07:45:08;;;;;;;44.30;40.27;;;;;;;;;;5096581;28;20443;-89
2021/07/27 07:47:36;;;;;;;47.47;43.07;;;;;;;;;;5097280;28;20775;-89
2021/07/27 07:50:03;;;;;;;44.97;41.07;;;;;;;;;;5095652;28;20429;-89
2021/07/27 07:52:30;;;;;;;48.77;44.17;;;;;;;;;;5096441;28;20437;-89
2021/07/27 07:54:59;;;;;;;48.37;43.80;;;;;;;;;;5097079;28;20454;-89
2021/07/27 07:57:28;;;;;;;48.30;43.70;;;;;;;;;;5096518;28;20488;-89
2021/07/27 07:59:58;;;;;;;45.10;41.23;;;;;;;;;;5096947;28;20927;-89
2021/07/27 08:02:25;;;;;;;47.03;42.50;;;;;;;;;;5096404;28;20577;-90
2021/07/27 08:04:53;;;;;;;48.03;43.40;;;;;;;;;;5096259;28;20443;-90
2021/07/27 08:07:20;;;;;;;44.90;40.90;;;;;;;;;;5096114;28;20428;-91
2021/07/27 08:09:47;;;;;;;42.40;38.70;;;;;;;;;;5096442;28;20453;-89
2021/07/27 08:12:15;;;;;;;44.83;40.93;;;;;;;;;;5096703;28;20438;-88
2021/07/27 08:14:44;;;;;;;43.57;39.70;;;;;;;;;;5096094;28;20628;-83
2021/07/27 08:17:12;;;;;;;41.40;37.97;;;;;;;;;;5095857;28;20413;-84
2021/07/27 08:19:39;;;;;;;42.37;38.67;;;;;;;;;;5095609;28;20468;-85
2021/07/27 08:22:07;;;;;;;42.70;39.30;;;;;;;;;;5096462;28;20423;-85
2021/07/27 08:24:36;;;;;;;40.93;37.47;;;;;;;;;;5095760;28;20411;-90
2021/07/27 08:27:08;;;;;;;38.23;35.33;;;;;;;;;;5094674;28;20442;-83
2021/07/27 08:29:35;;;;;;;37.80;34.80;;;;;;;;;;5094975;28;20923;-85
2021/07/27 08:32:08;;;;;;;37.33;34.43;;;;;;;;;;5095480;28;20929;-83
2021/07/27 08:34:36;;;;;;;36.80;33.70;;;;;;;;;;5093876;28;20405;-88
2021/07/27 08:37:03;;;;;;;37.20;34.43;;;;;;;;;;5095658;28;20429;-84
2021/07/27 08:39:31;;;;;;;36.67;33.77;;;;;;;;;;5095790;28;20443;-85
2021/07/27 08:42:01;;;;;;;35.63;33.03;;;;;;;;;;5095073;28;20438;-84
2021/07/27 08:44:29;;;;;;;38.47;35.40;;;;;;;;;;5095035;28;20437;-85
2021/07/27 08:46:57;;;;;;;37.87;34.63;;;;;;;;;;5095097;28;20442;-85
2021/07/27 08:49:27;;;;;;;37.43;34.50;;;;;;;;;;5095041;28;20440;-82
2021/07/27 08:51:54;;;;;;;36.30;33.63;;;;;;;;;;5094847;28;20437;-82
2021/07/27 08:54:22;;;;;;;36.00;33.33;;;;;;;;;;5093450;28;21027;-85
2021/07/27 08:56:49;;;;;;;34.77;32.27;;;;;;;;;;5094709;28;20432;-87
2021/07/27 08:59:17;;;;;;;34.77;32.10;;;;;;;;;;5094920;28;20425;-93
2021/07/27 09:01:44;;;;;;;33.83;31.47;;;;;;;;;;5094603;28;20470;-84
2021/07/27 09:04:13;;;;;;;34.20;31.40;;;;;;;;;;5095076;28;20798;-85
2021/07/27 09:06:42;;;;;;;35.10;31.97;;;;;;;;;;5095696;28;20430;-85
2021/07/27 09:09:11;;;;;;;34.17;31.63;;;;;;;;;;5094930;28;20403;-87
2021/07/27 09:11:45;;;;;;;36.23;33.47;;;;;;;;;;5095068;28;20433;-87
2021/07/27 09:14:14;;;;;;;33.70;31.30;;;;;;;;;;5093732;28;21024;-86
2021/07/27 09:16:44;;;;;;;34.90;32.07;;;;;;;;;;5095249;28;20413;-90
2021/07/27 09:19:11;;;;;;;35.27;32.77;;;;;;;;;;5095152;28;20461;-87
2021/07/27 09:21:41;;;;;;;36.20;33.30;;;;;;;;;;5094747;28;20570;-85
2021/07/27 09:24:10;;;;;;;35.07;32.33;;;;;;;;;;5095166;28;20775;-86
2021/07/27 09:26:38;;;;;;;34.83;32.33;;;;;;;;;;5094632;28;20474;-86
2021/07/27 09:29:06;;;;;;;34.63;31.93;;;;;;;;;;5094783;28;20411;-87
2021/07/27 09:31:33;;;;;;;35.37;32.70;;;;;;;;;;5095150;28;20452;-87
2021/07/27 09:34:10;;;;;;;34.57;32.00;;;;;;;;;;5094810;28;20435;-88
2021/07/27 09:36:38;;;;;;;34.73;32.33;;;;;;;;;;5093567;28;20526;-89
2021/07/27 09:39:06;;;;;;;35.03;32.57;;;;;;;;;;5093447;28;20431;-88
2021/07/27 09:41:35;;;;;;;34.20;31.67;;;;;;;;;;5094435;28;20483;-88
2021/07/27 09:44:05;;;;;;;35.43;32.93;;;;;;;;;;5094264;28;20467;-85
2021/07/27 09:46:32;;;;;;;34.60;31.80;;;;;;;;;;5094409;28;20442;-85
2021/07/27 09:49:00;;;;;;;33.77;31.10;;;;;;;;;;5094277;28;20410;-85
2021/07/27 09:51:28;;;;;;;34.70;32.30;;;;;;;;;;5093091;28;20418;-84
2021/07/27 09:53:56;;;;;;;36.87;34.17;;;;;;;;;;5093846;28;20517;-84
2021/07/27 09:56:25;;;;;;;36.77;34.00;;;;;;;;;;5094052;28;20434;-85
2021/07/27 09:58:53;;;;;;;38.90;36.03;;;;;;;;;;5093907;28;20432;-85
2021/07/27 10:01:22;;;;;;;36.37;33.70;;;;;;;;;;5094153;28;20458;-85
2021/07/27 10:03:52;;;;;;;34.83;32.27;;;;;;;;;;5093954;28;20415;-85
2021/07/27 10:06:24;;;;;;;36.33;33.47;;;;;;;;;;5093516;28;20448;-85
2021/07/27 10:08:55;;;;;;;35.67;33.07;;;;;;;;;;5093774;28;20896;-85
2021/07/27 10:11:34;;;;;;;33.13;30.90;;;;;;;;;;5093987;28;20448;-84
2021/07/27 10:14:08;;;;;;;35.60;33.00;;;;;;;;;;5093941;28;20504;-84
2021/07/27 10:16:35;;;;;;;35.93;33.23;;;;;;;;;;5093659;28;20433;-85
2021/07/27 10:19:12;;;;;;;36.53;33.70;;;;;;;;;;5093705;28;20523;-85
2021/07/27 10:21:40;;;;;;;34.77;32.37;;;;;;;;;;5093802;28;20489;-85
2021/07/27 10:24:15;;;;;;;36.87;33.83;;;;;;;;;;5093856;28;20415;-84
2021/07/27 10:26:43;;;;;;;36.07;33.47;;;;;;;;;;5093436;28;20459;-84
2021/07/27 10:29:12;;;;;;;34.50;31.90;;;;;;;;;;5094159;28;20414;-85
2021/07/27 10:31:40;;;;;;;33.83;31.40;;;;;;;;;;5093958;28;20422;-85
2021/07/27 10:34:08;;;;;;;33.53;31.03;;;;;;;;;;5093681;28;20926;-85
2021/07/27 10:36:36;;;;;;;34.40;32.00;;;;;;;;;;5093618;28;20408;-83
2021/07/27 10:39:08;;;;;;;34.03;31.33;;;;;;;;;;5093163;28;20444;-83
2021/07/27 10:41:39;;;;;;;34.57;32.17;;;;;;;;;;5093256;28;20479;-83
2021/07/27 10:44:06;;;;;;;34.37;31.80;;;;;;;;;;5093190;28;20457;-83
2021/07/27 10:46:38;;;;;;;32.87;30.53;;;;;;;;;;5093267;28;20945;-82
2021/07/27 10:49:05;;;;;;;33.67;30.93;;;;;;;;;;5093410;28;20440;-91
2021/07/27 10:51:36;;;;;;;33.33;30.87;;;;;;;;;;5091841;28;20476;-88
2021/07/27 10:54:05;;;;;;;31.00;28.97;;;;;;;;;;5094022;28;20520;-86
2021/07/27 10:56:33;;;;;;;31.40;29.30;;;;;;;;;;5094284;28;20417;-86
2021/07/27 10:59:01;;;;;;;31.50;29.20;;;;;;;;;;5097639;28;20439;-86
2021/07/27 11:01:32;;;;;;;31.10;29.00;;;;;;;;;;5097466;28;20576;-86
2021/07/27 11:04:11;;;;;;;31.30;29.03;;;;;;;;;;5096229;28;20523;-85
2021/07/27 11:06:38;;;;;;;31.33;29.03;;;;;;;;;;5096281;28;20437;-85
2021/07/27 11:09:11;;;;;;;30.57;28.57;;;;;;;;;;5097212;28;20425;-85
2021/07/27 11:11:49;;;;;;;31.23;29.03;;;;;;;;;;5097316;28;20444;-86
2021/07/27 11:14:21;;;;;;;31.10;29.00;;;;;;;;;;5097257;28;20449;-85
2021/07/27 11:16:48;;;;;;;31.20;28.93;;;;;;;;;;5096657;28;20468;-85
2021/07/27 11:19:27;;;;;;;30.27;28.13;;;;;;;;;;5096687;28;20418;-85
2021/07/27 11:21:55;;;;;;;30.27;28.17;;;;;;;;;;5095574;28;20515;-80
2021/07/27 11:24:23;;;;;;;31.70;29.40;;;;;;;;;;5096379;28;20472;-83
2021/07/27 11:26:51;;;;;;;31.03;28.77;;;;;;;;;;5096532;28;20914;-83
2021/07/27 11:29:19;;;;;;;31.53;29.53;;;;;;;;;;5096711;28;20425;-83
2021/07/27 11:31:47;;;;;;;31.57;29.30;;;;;;;;;;5096532;28;20429;-83
2021/07/27 11:34:15;;;;;;;31.73;29.63;;;;;;;;;;5096554;28;20437;-85
2021/07/27 11:36:53;;;;;;;30.37;28.53;;;;;;;;;;5096390;28;20440;-83
2021/07/27 11:39:20;;;;;;;31.87;29.50;;;;;;;;;;5096974;28;20450;-85
2021/07/27 11:41:58;;;;;;;30.03;27.93;;;;;;;;;;5096276;28;20491;-85
2021/07/27 11:44:25;;;;;;;29.90;28.10;;;;;;;;;;5096617;28;20444;-86
2021/07/27 11:46:53;;;;;;;29.73;27.83;;;;;;;;;;5096320;28;20444;-85
2021/07/27 11:49:20;;;;;;;30.50;28.50;;;;;;;;;;5096252;28;20440;-85
2021/07/27 11:51:49;;;;;;;30.10;28.20;;;;;;;;;;5096213;28;20430;-86
2021/07/27 11:54:26;;;;;;;29.63;27.60;;;;;;;;;;5095971;28;20477;-85
2021/07/27 11:56:53;;;;;;;31.00;28.77;;;;;;;;;;5095976;28;20464;-86
2021/07/27 11:59:27;;;;;;;30.37;28.37;;;;;;;;;;5096130;28;20440;-86
2021/07/27 12:01:55;;;;;;;30.57;28.57;;;;;;;;;;5096327;28;20455;-85
2021/07/27 12:04:23;;;;;;;29.70;27.80;;;;;;;;;;5095998;28;20441;-86
2021/07/27 12:07:02;;;;;;;28.60;26.50;;;;;;;;;;5096247;28;20471;-84
2021/07/27 12:09:29;;;;;;;29.87;27.90;;;;;;;;;;5095713;28;20898;-85
2021/07/27 12:11:56;;;;;;;30.80;28.60;;;;;;;;;;5096264;28;20433;-86
2021/07/27 12:14:24;;;;;;;30.20;28.20;;;;;;;;;;5095754;28;20441;-85
2021/07/27 12:16:51;;;;;;;29.97;27.70;;;;;;;;;;5095917;28;20460;-85
2021/07/27 12:19:18;;;;;;;29.37;27.57;;;;;;;;;;5095770;28;20441;-85
2021/07/27 12:21:46;;;;;;;28.27;26.50;;;;;;;;;;5095799;28;20551;-85
2021/07/27 12:24:15;;;;;;;29.80;27.70;;;;;;;;;;5095733;28;20411;-85
2021/07/27 12:26:42;;;;;;;30.47;28.60;;;;;;;;;;5095381;28;20433;-86
2021/07/27 12:29:10;;;;;;;30.00;28.10;;;;;;;;;;5095506;28;20437;-85
2021/07/27 12:31:37;;;;;;;29.23;27.10;;;;;;;;;;5094708;28;20411;-86
2021/07/27 12:34:04;;;;;;;50.60;27.50;;;;;;;;;;5095594;28;20795;-85
2021/07/27 12:36:32;;;;;;;29.80;27.80;;;;;;;;;;5095375;28;20486;-86
2021/07/27 12:38:59;;;;;;;30.10;27.90;;;;;;;;;;5095534;28;20445;-85
2021/07/27 12:41:28;;;;;;;27.80;26.00;;;;;;;;;;5095412;28;20574;-86
2021/07/27 12:43:55;;;;;;;29.60;27.50;;;;;;;;;;5095114;28;20460;-86
2021/07/27 12:46:25;;;;;;;28.97;27.07;;;;;;;;;;5095492;28;20420;-85
2021/07/27 12:48:52;;;;;;;27.57;25.87;;;;;;;;;;5095840;28;20441;-86
2021/07/27 12:51:20;;;;;;;27.73;26.03;;;;;;;;;;5095140;28;20409;-86
2021/07/27 12:53:48;;;;;;;28.60;26.73;;;;;;;;;;5094687;28;20950;-86
2021/07/27 12:56:15;;;;;;;29.37;27.03;;;;;;;;;;5094940;28;20508;-86
2021/07/27 12:58:44;;;;;;;28.90;26.93;;;;;;;;;;5095485;28;20406;-85
2021/07/27 13:01:11;;;;;;;29.63;27.57;;;;;;;;;;5095206;28;20448;-85
2021/07/27 13:03:39;;;;;;;30.10;27.90;;;;;;;;;;5095156;28;20423;-86
2021/07/27 13:06:07;;;;;;;29.47;27.50;;;;;;;;;;5094771;28;20421;-86
2021/07/27 13:08:35;;;;;;;29.20;27.30;;;;;;;;;;5093693;28;20423;-86
2021/07/27 13:11:02;;;;;;;29.40;27.43;;;;;;;;;;5095035;28;20441;-86
2021/07/27 13:13:30;;;;;;;28.17;26.43;;;;;;;;;;5095053;28;20442;-85
2021/07/27 13:15:59;;;;;;;28.30;26.40;;;;;;;;;;5095449;28;20409;-85
2021/07/27 13:18:26;;;;;;;29.10;27.40;;;;;;;;;;5094780;28;20502;-85
2021/07/27 13:20:54;;;;;;;27.93;26.23;;;;;;;;;;5093800;28;20410;-85
2021/07/27 13:23:21;;;;;;;29.23;27.23;;;;;;;;;;5094527;28;20412;-86
2021/07/27 13:25:49;;;;;;;29.30;27.43;;;;;;;;;;5094289;28;20405;-86
2021/07/27 13:28:16;;;;;;;28.87;27.07;;;;;;;;;;5093654;28;20474;-87
2021/07/27 13:30:44;;;;;;;28.70;26.90;;;;;;;;;;5094979;28;20462;-87
2021/07/27 13:33:13;;;;;;;28.50;26.70;;;;;;;;;;5094795;28;20918;-86
2021/07/27 13:35:40;;;;;;;27.47;25.77;;;;;;;;;;5093101;28;20438;-87
2021/07/27 13:38:07;;;;;;;28.60;26.80;;;;;;;;;;5093253;28;20449;-86
2021/07/27 13:40:35;;;;;;;27.33;25.60;;;;;;;;;;5094739;28;20546;-87
2021/07/27 13:43:02;;;;;;;28.20;26.40;;;;;;;;;;5093240;28;20459;-87
2021/07/27 13:45:30;;;;;;;28.40;26.33;;;;;;;;;;5095366;28;20503;-86
2021/07/27 13:47:58;;;;;;;28.30;26.47;;;;;;;;;;5094169;28;20963;-86
2021/07/27 13:50:26;;;;;;;27.00;25.13;;;;;;;;;;5094817;28;20522;-87
2021/07/27 13:52:54;;;;;;;26.17;24.57;;;;;;;;;;5092667;28;20452;-84
2021/07/27 13:55:21;;;;;;;26.60;25.00;;;;;;;;;;5094744;28;20444;-84
2021/07/27 13:57:49;;;;;;;27.90;26.10;;;;;;;;;;5095216;28;20430;-82
2021/07/27 14:00:18;;;;;;;27.30;25.40;;;;;;;;;;5094708;28;20454;-83
2021/07/27 14:02:46;;;;;;;26.83;25.13;;;;;;;;;;5094020;28;20570;-83
2021/07/27 14:05:14;;;;;;;26.83;25.23;;;;;;;;;;5094395;28;20449;-83
2021/07/27 14:07:42;;;;;;;26.00;24.40;;;;;;;;;;5094247;28;20762;-83
2021/07/27 14:10:11;;;;;;;27.80;26.10;;;;;;;;;;5093907;28;20530;-91
2021/07/27 14:12:38;;;;;;;27.70;25.80;;;;;;;;;;5093414;28;20464;-82
2021/07/27 14:15:06;;;;;;;27.60;25.70;;;;;;;;;;5093825;28;20444;-84
2021/07/27 14:17:33;;;;;;;29.97;27.67;;;;;;;;;;5094581;28;20446;-84
2021/07/27 14:20:00;;;;;;;28.40;26.40;;;;;;;;;;5094383;28;20533;-84
2021/07/27 14:22:28;;;;;;;26.90;25.10;;;;;;;;;;5093265;28;20887;-84
2021/07/27 14:24:57;;;;;;;28.63;26.53;;;;;;;;;;5095101;28;20432;-89
2021/07/27 14:27:24;;;;;;;27.63;25.70;;;;;;;;;;5095065;28;20441;-90
2021/07/27 14:29:52;;;;;;;27.30;25.50;;;;;;;;;;5094826;28;20440;-86
2021/07/27 14:32:19;;;;;;;28.23;26.43;;;;;;;;;;5098013;28;20404;-88
2021/07/27 14:34:47;;;;;;;28.60;26.70;;;;;;;;;;5098355;28;20415;-88
2021/07/27 14:37:14;;;;;;;29.00;26.73;;;;;;;;;;5098672;28;20430;-88
2021/07/27 14:39:42;;;;;;;27.97;26.07;;;;;;;;;;5097501;28;20969;-85
2021/07/27 14:42:11;;;;;;;29.20;27.27;;;;;;;;;;5097588;28;20835;-87